sensor_id;sensor_type;location;lat;lon;timestamp;pressure;altitude;pressure_sealevel;temperature;humidity
56042;BME280;48756;41.374;2.066;2024-02-15T00:00:35;101586.78;;;14.72;100.00
56042;BME280;48756;41.374;2.066;2024-02-15T00:03:00;101590.19;;;14.77;100.00
56042;BME280;48756;41.374;2.066;2024-02-15T00:05:26;101577.91;;;14.81;100.00
56042;BME280;48756;41.374;2.066;2024-02-15T00:07:51;101565.78;;;14.69;100.00
56042;BME280;48756;41.374;2.066;2024-02-15T00:10:19;101566.59;;;14.76;100.00
56042;BME280;48756;41.374;2.066;2024-02-15T00:12:46;101569.81;;;14.96;100.00
56042;BME280;48756;41.374;2.066;2024-02-15T00:15:12;101579.44;;;14.97;100.00
56042;BME280;48756;41.374;2.066;2024-02-15T00:17:38;101582.94;;;14.96;100.00
56042;BME280;48756;41.374;2.066;2024-02-15T00:20:03;101583.94;;;14.86;100.00
56042;BME280;48756;41.374;2.066;2024-02-15T00:22:35;101582.38;;;14.73;100.00
56042;BME280;48756;41.374;2.066;2024-02-15T00:25:04;101582.41;;;14.68;100.00
56042;BME280;48756;41.374;2.066;2024-02-15T00:27:30;101594.16;;;14.35;98.47
56042;BME280;48756;41.374;2.066;2024-02-15T00:29:57;101600.53;;;14.13;98.34
56042;BME280;48756;41.374;2.066;2024-02-15T00:32:23;101605.75;;;14.14;99.25
56042;BME280;48756;41.374;2.066;2024-02-15T00:34:48;101601.38;;;14.15;97.34
56042;BME280;48756;41.374;2.066;2024-02-15T00:37:14;101610.00;;;14.26;95.99
56042;BME280;48756;41.374;2.066;2024-02-15T00:39:39;101601.19;;;14.31;94.56
56042;BME280;48756;41.374;2.066;2024-02-15T00:42:05;101609.06;;;14.33;94.30
56042;BME280;48756;41.374;2.066;2024-02-15T00:44:34;101600.25;;;14.38;93.91
56042;BME280;48756;41.374;2.066;2024-02-15T00:46:59;101601.25;;;14.27;94.16
56042;BME280;48756;41.374;2.066;2024-02-15T00:49:25;101600.28;;;14.34;93.79
56042;BME280;48756;41.374;2.066;2024-02-15T00:51:53;101593.59;;;14.07;95.66
56042;BME280;48756;41.374;2.066;2024-02-15T00:54:18;101597.09;;;14.06;96.32
56042;BME280;48756;41.374;2.066;2024-02-15T00:56:43;101577.09;;;13.97;98.95
56042;BME280;48756;41.374;2.066;2024-02-15T00:59:09;101576.94;;;14.13;99.75
56042;BME280;48756;41.374;2.066;2024-02-15T01:01:34;101573.28;;;14.29;100.00
56042;BME280;48756;41.374;2.066;2024-02-15T01:04:03;101570.41;;;14.52;100.00
56042;BME280;48756;41.374;2.066;2024-02-15T01:06:35;101569.28;;;14.69;100.00
56042;BME280;48756;41.374;2.066;2024-02-15T01:09:01;101566.59;;;14.76;100.00
56042;BME280;48756;41.374;2.066;2024-02-15T01:11:28;101559.41;;;14.88;100.00
56042;BME280;48756;41.374;2.066;2024-02-15T01:13:53;101576.72;;;15.01;100.00
56042;BME280;48756;41.374;2.066;2024-02-15T01:16:19;101577.66;;;14.97;100.00
56042;BME280;48756;41.374;2.066;2024-02-15T01:18:44;101574.03;;;15.06;100.00
56042;BME280;48756;41.374;2.066;2024-02-15T01:21:09;101577.41;;;15.14;100.00
56042;BME280;48756;41.374;2.066;2024-02-15T01:23:36;101573.03;;;15.13;100.00
56042;BME280;48756;41.374;2.066;2024-02-15T01:26:02;101566.88;;;15.17;100.00
56042;BME280;48756;41.374;2.066;2024-02-15T01:28:27;101574.69;;;15.22;100.00
56042;BME280;48756;41.374;2.066;2024-02-15T01:30:52;101581.88;;;15.09;100.00
56042;BME280;48756;41.374;2.066;2024-02-15T01:33:19;101578.41;;;15.07;100.00
56042;BME280;48756;41.374;2.066;2024-02-15T01:35:45;101579.06;;;15.21;100.00
56042;BME280;48756;41.374;2.066;2024-02-15T01:38:12;101593.09;;;15.20;100.00
56042;BME280;48756;41.374;2.066;2024-02-15T01:40:38;101592.03;;;15.30;100.00
56042;BME280;48756;41.374;2.066;2024-02-15T01:43:04;101580.63;;;15.33;100.00
56042;BME280;48756;41.374;2.066;2024-02-15T01:45:29;101579.94;;;15.22;100.00
56042;BME280;48756;41.374;2.066;2024-02-15T01:47:55;101586.78;;;15.30;100.00
56042;BME280;48756;41.374;2.066;2024-02-15T01:50:21;101584.06;;;15.37;100.00
56042;BME280;48756;41.374;2.066;2024-02-15T01:52:50;101578.03;;;15.31;100.00
56042;BME280;48756;41.374;2.066;2024-02-15T01:55:16;101579.34;;;15.03;100.00
56042;BME280;48756;41.374;2.066;2024-02-15T01:57:46;101572.19;;;15.13;100.00
56042;BME280;48756;41.374;2.066;2024-02-15T02:00:13;101572.06;;;15.22;100.00
56042;BME280;48756;41.374;2.066;2024-02-15T02:02:41;101569.34;;;15.28;100.00
56042;BME280;48756;41.374;2.066;2024-02-15T02:05:07;101573.06;;;15.12;100.00
56042;BME280;48756;41.374;2.066;2024-02-15T02:07:33;101572.97;;;15.19;100.00
56042;BME280;48756;41.374;2.066;2024-02-15T02:09:58;101564.06;;;15.29;100.00
56042;BME280;48756;41.374;2.066;2024-02-15T02:12:23;101552.69;;;15.29;100.00
56042;BME280;48756;41.374;2.066;2024-02-15T02:14:54;101544.06;;;15.21;100.00
56042;BME280;48756;41.374;2.066;2024-02-15T02:17:20;101540.63;;;15.17;100.00
56042;BME280;48756;41.374;2.066;2024-02-15T02:19:46;101533.56;;;15.21;100.00
56042;BME280;48756;41.374;2.066;2024-02-15T02:22:13;101538.88;;;15.18;100.00
56042;BME280;48756;41.374;2.066;2024-02-15T02:27:19;101525.00;;;15.08;100.00
56042;BME280;48756;41.374;2.066;2024-02-15T02:29:44;101524.91;;;15.14;100.00
56042;BME280;48756;41.374;2.066;2024-02-15T02:32:11;101499.69;;;15.04;100.00
56042;BME280;48756;41.374;2.066;2024-02-15T02:34:36;101503.31;;;14.97;100.00
56042;BME280;48756;41.374;2.066;2024-02-15T02:37:01;101498.09;;;14.95;100.00
56042;BME280;48756;41.374;2.066;2024-02-15T02:39:30;101493.00;;;14.85;100.00
56042;BME280;48756;41.374;2.066;2024-02-15T02:41:56;101490.41;;;14.82;100.00
56042;BME280;48756;41.374;2.066;2024-02-15T02:44:22;101492.22;;;14.80;100.00
56042;BME280;48756;41.374;2.066;2024-02-15T02:46:47;101489.69;;;14.72;100.00
56042;BME280;48756;41.374;2.066;2024-02-15T02:49:13;101491.38;;;14.78;100.00
56042;BME280;48756;41.374;2.066;2024-02-15T02:51:38;101484.53;;;14.64;100.00
56042;BME280;48756;41.374;2.066;2024-02-15T02:54:03;101485.75;;;14.39;100.00
56042;BME280;48756;41.374;2.066;2024-02-15T02:56:33;101486.59;;;14.41;100.00
56042;BME280;48756;41.374;2.066;2024-02-15T02:58:59;101472.31;;;13.94;100.00
56042;BME280;48756;41.374;2.066;2024-02-15T03:01:24;101471.44;;;13.95;100.00
56042;BME280;48756;41.374;2.066;2024-02-15T03:03:53;101469.59;;;14.05;100.00
56042;BME280;48756;41.374;2.066;2024-02-15T03:06:20;101465.03;;;14.18;100.00
56042;BME280;48756;41.374;2.066;2024-02-15T03:08:46;101458.00;;;14.21;99.76
56042;BME280;48756;41.374;2.066;2024-02-15T03:11:11;101469.41;;;14.19;100.00
56042;BME280;48756;41.374;2.066;2024-02-15T03:13:37;101462.53;;;14.10;100.00
56042;BME280;48756;41.374;2.066;2024-02-15T03:16:02;101462.63;;;14.01;100.00
56042;BME280;48756;41.374;2.066;2024-02-15T03:18:29;101460.06;;;13.96;99.74
56042;BME280;48756;41.374;2.066;2024-02-15T03:20:54;101463.25;;;14.21;100.00
56042;BME280;48756;41.374;2.066;2024-02-15T03:23:20;101449.16;;;14.30;99.70
56042;BME280;48756;41.374;2.066;2024-02-15T03:25:45;101450.34;;;14.06;97.70
56042;BME280;48756;41.374;2.066;2024-02-15T03:28:13;101452.94;;;14.09;97.87
56042;BME280;48756;41.374;2.066;2024-02-15T03:30:40;101439.69;;;14.18;96.34
56042;BME280;48756;41.374;2.066;2024-02-15T03:33:05;101443.22;;;14.17;96.74
56042;BME280;48756;41.374;2.066;2024-02-15T03:35:31;101431.50;;;13.75;97.05
56042;BME280;48756;41.374;2.066;2024-02-15T03:37:57;101434.34;;;13.52;100.00
56042;BME280;48756;41.374;2.066;2024-02-15T03:40:24;101444.84;;;13.51;99.05
56042;BME280;48756;41.374;2.066;2024-02-15T03:42:54;101440.28;;;13.71;98.43
56042;BME280;48756;41.374;2.066;2024-02-15T03:45:19;101433.00;;;13.96;96.81
56042;BME280;48756;41.374;2.066;2024-02-15T03:47:45;101438.16;;;14.00;95.78
56042;BME280;48756;41.374;2.066;2024-02-15T03:50:11;101433.06;;;13.91;95.85
56042;BME280;48756;41.374;2.066;2024-02-15T03:52:39;101428.63;;;13.95;94.26
56042;BME280;48756;41.374;2.066;2024-02-15T03:55:06;101436.34;;;14.08;94.10
56042;BME280;48756;41.374;2.066;2024-02-15T03:57:34;101442.41;;;14.12;94.04
56042;BME280;48756;41.374;2.066;2024-02-15T04:00:00;101436.38;;;14.05;93.72
56042;BME280;48756;41.374;2.066;2024-02-15T04:02:25;101424.19;;;14.00;94.72
56042;BME280;48756;41.374;2.066;2024-02-15T04:04:55;101432.00;;;14.06;93.71
56042;BME280;48756;41.374;2.066;2024-02-15T04:07:21;101424.34;;;13.89;94.62
56042;BME280;48756;41.374;2.066;2024-02-15T04:09:47;101415.84;;;13.69;94.22
56042;BME280;48756;41.374;2.066;2024-02-15T04:12:13;101418.34;;;13.78;95.71
56042;BME280;48756;41.374;2.066;2024-02-15T04:14:39;101414.72;;;13.91;95.31
56042;BME280;48756;41.374;2.066;2024-02-15T04:17:05;101417.22;;;14.00;93.94
56042;BME280;48756;41.374;2.066;2024-02-15T04:19:31;101418.94;;;14.01;94.32
56042;BME280;48756;41.374;2.066;2024-02-15T04:21:56;101406.72;;;14.00;94.14
56042;BME280;48756;41.374;2.066;2024-02-15T04:24:21;101412.97;;;13.92;95.06
56042;BME280;48756;41.374;2.066;2024-02-15T04:26:48;101412.19;;;13.84;94.61
56042;BME280;48756;41.374;2.066;2024-02-15T04:29:14;101408.88;;;13.68;94.38
56042;BME280;48756;41.374;2.066;2024-02-15T04:31:42;101406.28;;;13.66;93.75
56042;BME280;48756;41.374;2.066;2024-02-15T04:34:08;101412.53;;;13.53;93.95
56042;BME280;48756;41.374;2.066;2024-02-15T04:36:34;101420.38;;;13.55;94.29
56042;BME280;48756;41.374;2.066;2024-02-15T04:39:00;101415.09;;;13.58;93.11
56042;BME280;48756;41.374;2.066;2024-02-15T04:41:27;101416.28;;;13.28;93.40
56042;BME280;48756;41.374;2.066;2024-02-15T04:43:54;101433.81;;;13.16;93.44
56042;BME280;48756;41.374;2.066;2024-02-15T04:46:19;101427.56;;;13.36;92.96
56042;BME280;48756;41.374;2.066;2024-02-15T04:48:47;101409.13;;;13.46;92.88
56042;BME280;48756;41.374;2.066;2024-02-15T04:51:17;101415.31;;;13.39;93.62
56042;BME280;48756;41.374;2.066;2024-02-15T04:53:46;101408.25;;;13.46;91.99
56042;BME280;48756;41.374;2.066;2024-02-15T04:56:13;101410.09;;;13.36;92.21
56042;BME280;48756;41.374;2.066;2024-02-15T04:58:42;101419.00;;;13.18;93.04
56042;BME280;48756;41.374;2.066;2024-02-15T05:01:17;101416.56;;;12.93;93.31
56042;BME280;48756;41.374;2.066;2024-02-15T05:03:45;101420.72;;;13.20;93.65
56042;BME280;48756;41.374;2.066;2024-02-15T05:06:11;101419.78;;;13.27;92.77
56042;BME280;48756;41.374;2.066;2024-02-15T05:08:38;101421.47;;;13.32;92.71
56042;BME280;48756;41.374;2.066;2024-02-15T05:11:09;101417.91;;;13.41;91.18
56042;BME280;48756;41.374;2.066;2024-02-15T05:13:43;101423.09;;;13.44;91.30
56042;BME280;48756;41.374;2.066;2024-02-15T05:16:10;101435.34;;;13.43;91.45
56042;BME280;48756;41.374;2.066;2024-02-15T05:18:35;101430.03;;;13.49;91.24
56042;BME280;48756;41.374;2.066;2024-02-15T05:21:01;101423.06;;;13.48;91.86
56042;BME280;48756;41.374;2.066;2024-02-15T05:23:26;101417.72;;;13.56;91.65
56042;BME280;48756;41.374;2.066;2024-02-15T05:25:52;101427.38;;;13.51;91.24
56042;BME280;48756;41.374;2.066;2024-02-15T05:28:21;101429.13;;;13.52;91.12
56042;BME280;48756;41.374;2.066;2024-02-15T05:31:08;101424.69;;;13.60;90.15
56042;BME280;48756;41.374;2.066;2024-02-15T05:33:33;101415.09;;;13.58;90.05
56042;BME280;48756;41.374;2.066;2024-02-15T05:35:58;101415.19;;;13.48;90.34
56042;BME280;48756;41.374;2.066;2024-02-15T05:38:24;101409.94;;;13.50;90.51
56042;BME280;48756;41.374;2.066;2024-02-15T05:40:49;101421.25;;;13.52;90.54
56042;BME280;48756;41.374;2.066;2024-02-15T05:43:18;101413.38;;;13.58;89.66
56042;BME280;48756;41.374;2.066;2024-02-15T05:45:43;101411.59;;;13.57;89.60
56042;BME280;48756;41.374;2.066;2024-02-15T05:48:10;101409.00;;;13.56;90.40
56042;BME280;48756;41.374;2.066;2024-02-15T05:50:37;101401.94;;;13.65;89.94
56042;BME280;48756;41.374;2.066;2024-02-15T05:53:03;101394.97;;;13.63;89.63
56042;BME280;48756;41.374;2.066;2024-02-15T05:55:29;101402.84;;;13.63;89.41
56042;BME280;48756;41.374;2.066;2024-02-15T05:57:56;101404.59;;;13.61;88.87
56042;BME280;48756;41.374;2.066;2024-02-15T06:00:21;101395.28;;;13.32;90.35
56042;BME280;48756;41.374;2.066;2024-02-15T06:02:47;101386.56;;;13.36;90.62
56042;BME280;48756;41.374;2.066;2024-02-15T06:05:12;101400.50;;;13.34;91.22
56042;BME280;48756;41.374;2.066;2024-02-15T06:07:37;101384.78;;;13.38;90.87
56042;BME280;48756;41.374;2.066;2024-02-15T06:10:05;101389.81;;;13.58;89.80
56042;BME280;48756;41.374;2.066;2024-02-15T06:12:32;101395.31;;;13.29;90.61
56042;BME280;48756;41.374;2.066;2024-02-15T06:14:58;101393.69;;;13.21;91.12
56042;BME280;48756;41.374;2.066;2024-02-15T06:17:23;101400.56;;;13.29;90.92
56042;BME280;48756;41.374;2.066;2024-02-15T06:19:49;101405.00;;;13.21;90.28
56042;BME280;48756;41.374;2.066;2024-02-15T06:22:14;101397.91;;;13.35;91.44
56042;BME280;48756;41.374;2.066;2024-02-15T06:24:40;101396.03;;;13.45;91.42
56042;BME280;48756;41.374;2.066;2024-02-15T06:27:06;101396.78;;;13.55;90.95
56042;BME280;48756;41.374;2.066;2024-02-15T06:29:32;101407.38;;;13.45;90.73
56042;BME280;48756;41.374;2.066;2024-02-15T06:32:16;101402.91;;;13.55;91.14
56042;BME280;48756;41.374;2.066;2024-02-15T06:34:59;101404.63;;;13.58;91.05
56042;BME280;48756;41.374;2.066;2024-02-15T06:37:43;101404.66;;;13.55;90.92
56042;BME280;48756;41.374;2.066;2024-02-15T06:40:32;101398.47;;;13.63;90.25
56042;BME280;48756;41.374;2.066;2024-02-15T06:42:58;101402.78;;;13.66;90.87
56042;BME280;48756;41.374;2.066;2024-02-15T06:45:23;101402.69;;;13.73;89.66
56042;BME280;48756;41.374;2.066;2024-02-15T06:47:49;101399.13;;;13.79;89.27
56042;BME280;48756;41.374;2.066;2024-02-15T06:50:14;101398.16;;;13.88;88.74
56042;BME280;48756;41.374;2.066;2024-02-15T06:52:43;101398.25;;;13.82;89.48
56042;BME280;48756;41.374;2.066;2024-02-15T06:55:09;101393.81;;;13.87;89.46
56042;BME280;48756;41.374;2.066;2024-02-15T06:57:37;101390.19;;;13.95;88.84
56042;BME280;48756;41.374;2.066;2024-02-15T07:00:05;101401.91;;;13.67;92.06
56042;BME280;48756;41.374;2.066;2024-02-15T07:02:34;101407.97;;;13.70;90.00
56042;BME280;48756;41.374;2.066;2024-02-15T07:05:00;101409.78;;;13.65;89.82
56042;BME280;48756;41.374;2.066;2024-02-15T07:07:25;101418.34;;;13.81;90.07
56042;BME280;48756;41.374;2.066;2024-02-15T07:09:51;101410.66;;;13.64;88.85
56042;BME280;48756;41.374;2.066;2024-02-15T07:12:17;101424.56;;;13.71;88.20
56042;BME280;48756;41.374;2.066;2024-02-15T07:14:44;101418.56;;;13.61;88.20
56042;BME280;48756;41.374;2.066;2024-02-15T07:17:10;101418.16;;;13.95;87.53
56042;BME280;48756;41.374;2.066;2024-02-15T07:19:35;101420.44;;;14.21;85.86
56042;BME280;48756;41.374;2.066;2024-02-15T07:22:02;101425.81;;;14.12;86.04
56042;BME280;48756;41.374;2.066;2024-02-15T07:24:27;101425.16;;;13.94;86.25
56042;BME280;48756;41.374;2.066;2024-02-15T07:26:53;101427.50;;;14.16;86.05
56042;BME280;48756;41.374;2.066;2024-02-15T07:29:20;101428.38;;;14.16;84.27
56042;BME280;48756;41.374;2.066;2024-02-15T07:31:48;101426.53;;;14.23;85.11
56042;BME280;48756;41.374;2.066;2024-02-15T07:34:14;101435.25;;;14.23;84.91
56042;BME280;48756;41.374;2.066;2024-02-15T07:36:39;101436.06;;;14.30;85.32
56042;BME280;48756;41.374;2.066;2024-02-15T07:39:08;101433.59;;;14.18;85.48
56042;BME280;48756;41.374;2.066;2024-02-15T07:41:37;101435.19;;;14.29;84.71
56042;BME280;48756;41.374;2.066;2024-02-15T07:44:03;101438.66;;;14.31;85.08
56042;BME280;48756;41.374;2.066;2024-02-15T07:46:28;101449.19;;;14.28;83.29
56042;BME280;48756;41.374;2.066;2024-02-15T07:48:56;101447.28;;;14.39;83.22
56042;BME280;48756;41.374;2.066;2024-02-15T07:51:22;101442.03;;;14.39;82.42
56042;BME280;48756;41.374;2.066;2024-02-15T07:53:48;101445.72;;;14.25;83.17
56042;BME280;48756;41.374;2.066;2024-02-15T07:56:16;101443.53;;;13.91;84.44
56042;BME280;48756;41.374;2.066;2024-02-15T07:58:41;101441.00;;;13.85;84.73
56042;BME280;48756;41.374;2.066;2024-02-15T08:01:07;101443.13;;;14.23;83.77
56042;BME280;48756;41.374;2.066;2024-02-15T08:03:34;101447.72;;;14.07;84.20
56042;BME280;48756;41.374;2.066;2024-02-15T08:06:00;101456.22;;;14.26;84.44
56042;BME280;48756;41.374;2.066;2024-02-15T08:08:25;101455.72;;;14.63;82.71
56042;BME280;48756;41.374;2.066;2024-02-15T08:10:51;101443.75;;;14.42;82.02
56042;BME280;48756;41.374;2.066;2024-02-15T08:13:18;101449.03;;;14.39;84.47
56042;BME280;48756;41.374;2.066;2024-02-15T08:15:47;101439.38;;;14.44;83.37
56042;BME280;48756;41.374;2.066;2024-02-15T08:18:17;101443.84;;;14.36;83.69
56042;BME280;48756;41.374;2.066;2024-02-15T08:20:45;101451.97;;;14.16;85.73
56042;BME280;48756;41.374;2.066;2024-02-15T08:23:10;101455.16;;;14.39;84.78
56042;BME280;48756;41.374;2.066;2024-02-15T08:25:38;101459.09;;;14.69;83.37
56042;BME280;48756;41.374;2.066;2024-02-15T08:28:05;101468.69;;;14.74;81.28
56042;BME280;48756;41.374;2.066;2024-02-15T08:30:32;101466.72;;;14.86;81.55
56042;BME280;48756;41.374;2.066;2024-02-15T08:32:57;101473.88;;;14.77;80.31
56042;BME280;48756;41.374;2.066;2024-02-15T08:35:23;101480.03;;;15.29;80.36
56042;BME280;48756;41.374;2.066;2024-02-15T08:37:48;101481.47;;;15.47;77.64
56042;BME280;48756;41.374;2.066;2024-02-15T08:40:15;101485.56;;;15.11;77.03
56042;BME280;48756;41.374;2.066;2024-02-15T08:42:44;101485.13;;;15.37;75.60
56042;BME280;48756;41.374;2.066;2024-02-15T08:45:12;101490.47;;;15.32;77.41
56042;BME280;48756;41.374;2.066;2024-02-15T08:47:40;101485.53;;;15.67;74.68
56042;BME280;48756;41.374;2.066;2024-02-15T08:50:06;101484.53;;;15.74;74.18
56042;BME280;48756;41.374;2.066;2024-02-15T08:52:34;101482.13;;;16.06;72.72
56042;BME280;48756;41.374;2.066;2024-02-15T08:55:04;101485.63;;;16.48;71.14
56042;BME280;48756;41.374;2.066;2024-02-15T08:57:32;101488.38;;;16.84;71.14
56042;BME280;48756;41.374;2.066;2024-02-15T08:59:59;101483.47;;;17.06;69.13
56042;BME280;48756;41.374;2.066;2024-02-15T09:02:25;101479.56;;;17.22;69.50
56042;BME280;48756;41.374;2.066;2024-02-15T09:04:53;101481.53;;;17.12;68.32
56042;BME280;48756;41.374;2.066;2024-02-15T09:07:18;101479.81;;;17.11;67.61
56042;BME280;48756;41.374;2.066;2024-02-15T09:09:44;101478.84;;;17.14;65.31
56042;BME280;48756;41.374;2.066;2024-02-15T09:12:09;101465.19;;;17.34;66.57
56042;BME280;48756;41.374;2.066;2024-02-15T09:14:35;101464.38;;;17.66;64.77
56042;BME280;48756;41.374;2.066;2024-02-15T09:17:04;101462.28;;;17.79;63.42
56042;BME280;48756;41.374;2.066;2024-02-15T09:19:33;101472.31;;;17.97;62.95
56042;BME280;48756;41.374;2.066;2024-02-15T09:21:58;101465.38;;;18.24;62.54
56042;BME280;48756;41.374;2.066;2024-02-15T09:24:24;101468.47;;;18.38;61.55
56042;BME280;48756;41.374;2.066;2024-02-15T09:26:50;101463.25;;;18.36;61.07
56042;BME280;48756;41.374;2.066;2024-02-15T09:29:15;101466.31;;;17.92;61.90
56042;BME280;48756;41.374;2.066;2024-02-15T09:31:41;101461.72;;;17.66;63.30
56042;BME280;48756;41.374;2.066;2024-02-15T09:34:09;101452.72;;;18.05;62.14
56042;BME280;48756;41.374;2.066;2024-02-15T09:36:37;101464.53;;;17.92;62.35
56042;BME280;48756;41.374;2.066;2024-02-15T09:39:03;101456.72;;;17.89;62.78
56042;BME280;48756;41.374;2.066;2024-02-15T09:41:28;101456.44;;;17.98;61.44
56042;BME280;48756;41.374;2.066;2024-02-15T09:43:54;101456.00;;;18.14;61.72
56042;BME280;48756;41.374;2.066;2024-02-15T09:46:19;101448.47;;;18.59;59.98
56042;BME280;48756;41.374;2.066;2024-02-15T09:48:47;101441.88;;;18.44;60.14
56042;BME280;48756;41.374;2.066;2024-02-15T09:51:14;101439.50;;;18.92;59.00
56042;BME280;48756;41.374;2.066;2024-02-15T09:53:44;101436.09;;;19.15;58.03
56042;BME280;48756;41.374;2.066;2024-02-15T09:56:11;101439.59;;;19.16;57.87
56042;BME280;48756;41.374;2.066;2024-02-15T09:58:37;101438.47;;;19.23;57.72
56042;BME280;48756;41.374;2.066;2024-02-15T10:01:04;101446.00;;;18.82;58.85
56042;BME280;48756;41.374;2.066;2024-02-15T10:03:34;101438.91;;;19.11;58.08
56042;BME280;48756;41.374;2.066;2024-02-15T10:06:01;101441.88;;;18.74;58.86
56042;BME280;48756;41.374;2.066;2024-02-15T10:08:26;101443.47;;;19.06;57.93
56042;BME280;48756;41.374;2.066;2024-02-15T10:11:10;101433.41;;;18.90;58.73
56042;BME280;48756;41.374;2.066;2024-02-15T10:13:36;101433.09;;;19.26;58.57
56042;BME280;48756;41.374;2.066;2024-02-15T10:16:14;101435.34;;;19.37;56.81
56042;BME280;48756;41.374;2.066;2024-02-15T10:18:42;101432.16;;;19.02;58.41
56042;BME280;48756;41.374;2.066;2024-02-15T10:21:08;101425.47;;;19.17;57.83
56042;BME280;48756;41.374;2.066;2024-02-15T10:23:33;101429.84;;;19.43;57.41
56042;BME280;48756;41.374;2.066;2024-02-15T10:26:02;101424.13;;;19.56;56.14
56042;BME280;48756;41.374;2.066;2024-02-15T10:28:43;101421.03;;;19.69;56.04
56042;BME280;48756;41.374;2.066;2024-02-15T10:31:09;101417.94;;;19.81;55.87
56042;BME280;48756;41.374;2.066;2024-02-15T10:33:37;101420.72;;;20.01;54.53
56042;BME280;48756;41.374;2.066;2024-02-15T10:36:06;101412.22;;;19.93;54.59
56042;BME280;48756;41.374;2.066;2024-02-15T10:38:34;101414.78;;;19.71;55.11
56042;BME280;48756;41.374;2.066;2024-02-15T10:41:03;101414.50;;;20.02;55.37
56042;BME280;48756;41.374;2.066;2024-02-15T10:43:35;101422.97;;;20.34;54.55
56042;BME280;48756;41.374;2.066;2024-02-15T10:46:02;101423.34;;;20.25;54.73
56042;BME280;48756;41.374;2.066;2024-02-15T10:48:28;101423.91;;;20.33;54.93
56042;BME280;48756;41.374;2.066;2024-02-15T10:50:53;101424.94;;;20.52;54.09
56042;BME280;48756;41.374;2.066;2024-02-15T10:53:21;101413.41;;;20.53;54.01
56042;BME280;48756;41.374;2.066;2024-02-15T10:55:55;101406.16;;;20.58;53.22
56042;BME280;48756;41.374;2.066;2024-02-15T10:58:25;101415.16;;;20.54;53.78
56042;BME280;48756;41.374;2.066;2024-02-15T11:00:51;101413.06;;;20.84;52.85
56042;BME280;48756;41.374;2.066;2024-02-15T11:03:25;101405.13;;;20.62;53.45
56042;BME280;48756;41.374;2.066;2024-02-15T11:05:54;101407.34;;;20.28;55.39
56042;BME280;48756;41.374;2.066;2024-02-15T11:08:21;101410.59;;;20.58;53.89
56042;BME280;48756;41.374;2.066;2024-02-15T11:10:49;101400.38;;;20.70;54.56
56042;BME280;48756;41.374;2.066;2024-02-15T11:13:15;101389.28;;;20.83;55.15
56042;BME280;48756;41.374;2.066;2024-02-15T11:15:47;101395.13;;;21.11;54.31
56042;BME280;48756;41.374;2.066;2024-02-15T11:21:00;101382.06;;;21.28;52.60
56042;BME280;48756;41.374;2.066;2024-02-15T11:23:25;101378.91;;;21.19;53.80
56042;BME280;48756;41.374;2.066;2024-02-15T11:25:52;101374.00;;;20.89;54.31
56042;BME280;48756;41.374;2.066;2024-02-15T11:30:45;101358.75;;;21.15;52.47
56042;BME280;48756;41.374;2.066;2024-02-15T11:33:30;101357.69;;;20.98;51.49
56042;BME280;48756;41.374;2.066;2024-02-15T11:38:42;101345.81;;;21.48;51.09
56042;BME280;48756;41.374;2.066;2024-02-15T11:41:11;101332.75;;;21.63;51.09
56042;BME280;48756;41.374;2.066;2024-02-15T11:46:11;101323.22;;;21.59;51.40
56042;BME280;48756;41.374;2.066;2024-02-15T11:48:40;101324.94;;;21.60;50.25
56042;BME280;48756;41.374;2.066;2024-02-15T11:51:06;101320.97;;;21.69;49.56
56042;BME280;48756;41.374;2.066;2024-02-15T11:53:36;101319.81;;;21.37;48.84
56042;BME280;48756;41.374;2.066;2024-02-15T11:56:02;101306.09;;;21.27;48.97
56042;BME280;48756;41.374;2.066;2024-02-15T11:58:30;101307.41;;;21.17;50.10
56042;BME280;48756;41.374;2.066;2024-02-15T12:01:09;101304.47;;;21.44;48.68
56042;BME280;48756;41.374;2.066;2024-02-15T12:03:54;101291.44;;;21.19;46.25
56042;BME280;48756;41.374;2.066;2024-02-15T12:06:38;101289.09;;;21.52;45.42
56042;BME280;48756;41.374;2.066;2024-02-15T12:09:22;101286.34;;;21.91;45.79
56042;BME280;48756;41.374;2.066;2024-02-15T12:12:06;101284.94;;;21.65;46.53
56042;BME280;48756;41.374;2.066;2024-02-15T12:14:57;101273.59;;;21.99;45.54
56042;BME280;48756;41.374;2.066;2024-02-15T12:17:41;101260.78;;;22.26;44.64
56042;BME280;48756;41.374;2.066;2024-02-15T12:20:25;101254.81;;;21.85;44.16
56042;BME280;48756;41.374;2.066;2024-02-15T12:22:51;101253.97;;;21.47;44.52
56042;BME280;48756;41.374;2.066;2024-02-15T12:25:20;101255.34;;;21.55;43.86
56042;BME280;48756;41.374;2.066;2024-02-15T12:27:52;101253.41;;;21.95;44.15
56042;BME280;48756;41.374;2.066;2024-02-15T12:30:19;101249.81;;;21.60;43.87
56042;BME280;48756;41.374;2.066;2024-02-15T12:32:50;101237.66;;;21.92;44.38
56042;BME280;48756;41.374;2.066;2024-02-15T12:35:16;101228.28;;;22.38;43.91
56042;BME280;48756;41.374;2.066;2024-02-15T12:37:44;101225.28;;;22.46;43.56
56042;BME280;48756;41.374;2.066;2024-02-15T12:40:14;101232.81;;;22.36;43.48
56042;BME280;48756;41.374;2.066;2024-02-15T12:42:44;101236.06;;;22.43;43.34
56042;BME280;48756;41.374;2.066;2024-02-15T12:47:45;101226.03;;;22.30;43.17
56042;BME280;48756;41.374;2.066;2024-02-15T12:50:14;101219.47;;;22.38;43.19
56042;BME280;48756;41.374;2.066;2024-02-15T12:52:42;101215.72;;;22.07;43.52
56042;BME280;48756;41.374;2.066;2024-02-15T12:55:13;101207.53;;;22.46;43.55
56042;BME280;48756;41.374;2.066;2024-02-15T12:57:39;101206.97;;;22.74;41.31
56042;BME280;48756;41.374;2.066;2024-02-15T13:00:10;101198.88;;;22.43;40.96
56042;BME280;48756;41.374;2.066;2024-02-15T13:02:38;101197.53;;;22.69;43.41
56042;BME280;48756;41.374;2.066;2024-02-15T13:05:04;101197.25;;;23.23;44.67